createdAt,value
2018-12-31T00:00:06.555Z,7.40
2018-12-31T00:01:13.409Z,7.50
2018-12-31T00:02:20.173Z,7.60
2018-12-31T00:03:26.958Z,7.50
2018-12-31T00:04:33.599Z,7.90
2018-12-31T00:05:40.771Z,7.40
2018-12-31T00:06:47.492Z,7.10
2018-12-31T00:07:54.712Z,6.70
2018-12-31T00:09:01.299Z,7.90
2018-12-31T00:10:08.551Z,8.50
2018-12-31T00:11:15.228Z,8.20
2018-12-31T00:12:22.068Z,7.90
2018-12-31T00:13:28.721Z,8.30
2018-12-31T00:14:36.032Z,9.00
2018-12-31T00:15:42.676Z,7.50
2018-12-31T00:16:49.242Z,6.90
2018-12-31T00:17:56.332Z,7.30
2018-12-31T00:19:03.608Z,7.20
2018-12-31T00:20:10.474Z,7.40
2018-12-31T00:21:17.231Z,7.60
2018-12-31T00:22:24.424Z,7.70
2018-12-31T00:23:31.061Z,6.60
2018-12-31T00:24:38.352Z,7.60
2018-12-31T00:25:44.952Z,7.90
2018-12-31T00:26:52.284Z,8.30
2018-12-31T00:27:59.048Z,7.80
2018-12-31T00:29:05.824Z,7.50
2018-12-31T00:30:12.572Z,8.00
2018-12-31T00:31:19.233Z,7.60
2018-12-31T00:32:26.406Z,7.70
2018-12-31T00:33:33.490Z,7.60
2018-12-31T00:34:40.673Z,8.10
2018-12-31T00:35:47.373Z,6.90
2018-12-31T00:36:54.696Z,7.40
2018-12-31T00:38:01.260Z,8.20
2018-12-31T00:39:08.449Z,8.10
2018-12-31T00:40:15.203Z,8.00
2018-12-31T00:41:21.940Z,8.30
2018-12-31T00:42:28.616Z,7.60
2018-12-31T00:43:35.493Z,8.00
2018-12-31T00:44:42.184Z,8.40
2018-12-31T00:45:48.817Z,7.30
2018-12-31T00:46:55.808Z,8.20
2018-12-31T00:48:03.076Z,8.30
2018-12-31T00:49:09.756Z,7.80
2018-12-31T00:50:17.024Z,8.40
2018-12-31T00:51:23.760Z,8.60
2018-12-31T00:52:30.432Z,8.00
2018-12-31T00:53:37.120Z,8.60
2018-12-31T00:54:43.784Z,8.30
2018-12-31T00:55:51.034Z,9.30
2018-12-31T00:56:57.700Z,8.30
2018-12-31T00:58:04.939Z,8.60
2018-12-31T00:59:11.637Z,8.70
2018-12-31T01:00:18.420Z,8.20
2018-12-31T01:01:25.131Z,8.60
2018-12-31T01:02:31.832Z,8.00
2018-12-31T01:03:38.545Z,8.40
2018-12-31T01:04:45.224Z,9.20
2018-12-31T01:05:51.953Z,8.30
2018-12-31T01:06:58.584Z,8.70
2018-12-31T01:08:05.752Z,9.70
2018-12-31T01:09:12.933Z,9.30
2018-12-31T01:10:19.597Z,9.80
2018-12-31T01:11:26.656Z,9.20
2018-12-31T01:12:33.736Z,8.30
2018-12-31T01:13:41.008Z,8.40
2018-12-31T01:14:47.565Z,9.30
2018-12-31T01:15:54.949Z,10.20
2018-12-31T01:17:01.624Z,8.80
2018-12-31T01:18:08.502Z,8.40
2018-12-31T01:19:15.152Z,9.40
2018-12-31T01:20:22.371Z,9.90
2018-12-31T01:21:29.044Z,9.00
2018-12-31T01:22:36.368Z,9.70
2018-12-31T01:23:43.135Z,9.70
2018-12-31T01:24:49.810Z,9.00
2018-12-31T01:25:56.376Z,10.80
2018-12-31T01:27:03.634Z,9.70
2018-12-31T01:28:10.570Z,9.20
2018-12-31T01:29:17.156Z,9.40
2018-12-31T01:30:24.444Z,9.00
2018-12-31T01:31:31.172Z,9.50
2018-12-31T01:32:37.976Z,9.40
2018-12-31T01:33:44.642Z,9.50
2018-12-31T01:34:51.501Z,9.40
2018-12-31T01:35:58.589Z,9.70
2018-12-31T01:37:05.356Z,9.40
2018-12-31T01:38:11.992Z,8.40
2018-12-31T01:39:19.170Z,9.20
2018-12-31T01:40:25.753Z,9.20
2018-12-31T01:41:32.944Z,9.80
2018-12-31T01:42:39.676Z,8.80
2018-12-31T01:43:46.357Z,8.80
2018-12-31T01:44:53.621Z,8.90
2018-12-31T01:46:00.177Z,9.30
2018-12-31T01:47:08.670Z,10.60
2018-12-31T01:48:14.321Z,9.70
2018-12-31T01:49:21.593Z,9.30
2018-12-31T01:50:28.298Z,10.20
2018-12-31T01:51:35.021Z,10.20
2018-12-31T01:52:41.684Z,9.20
2018-12-31T01:53:48.862Z,8.70
2018-12-31T01:54:55.533Z,8.90
2018-12-31T01:56:02.765Z,8.50
2018-12-31T01:57:09.368Z,9.50
2018-12-31T01:58:16.641Z,9.60
2018-12-31T01:59:23.539Z,9.50
2018-12-31T02:00:31.803Z,9.20
2018-12-31T02:01:38.616Z,8.40
2018-12-31T02:02:45.083Z,8.40
2018-12-31T02:03:52.310Z,7.80
2018-12-31T02:04:59.069Z,8.60
2018-12-31T02:06:05.826Z,8.10
2018-12-31T02:07:12.416Z,8.10
2018-12-31T02:08:19.660Z,8.10
2018-12-31T02:09:26.506Z,8.10
2018-12-31T02:10:33.518Z,8.90
2018-12-31T02:11:40.484Z,8.30
2018-12-31T02:12:47.218Z,9.00
2018-12-31T02:13:54.930Z,9.20
2018-12-31T02:15:01.007Z,8.60
2018-12-31T02:16:08.360Z,8.70
2018-12-31T02:17:14.724Z,7.90
2018-12-31T02:18:21.457Z,8.20
2018-12-31T02:19:28.081Z,7.60
2018-12-31T02:20:35.415Z,8.00
2018-12-31T02:21:42.116Z,8.60
2018-12-31T02:22:49.256Z,7.80
2018-12-31T02:23:56.353Z,8.30
2018-12-31T02:25:03.701Z,7.90
2018-12-31T02:26:10.477Z,8.40
2018-12-31T02:27:17.109Z,8.50
2018-12-31T02:28:24.404Z,8.00
2018-12-31T02:29:31.168Z,7.80
2018-12-31T02:30:37.952Z,7.80
2018-12-31T02:31:44.710Z,8.30
2018-12-31T02:32:51.500Z,9.00
2018-12-31T02:33:58.244Z,7.60
2018-12-31T02:35:04.918Z,8.30
2018-12-31T02:36:11.679Z,8.50
2018-12-31T02:37:18.338Z,9.00
2018-12-31T02:38:25.168Z,8.30
2018-12-31T02:39:32.278Z,8.80
2018-12-31T02:40:39.553Z,8.30
2018-12-31T02:41:46.189Z,8.30
2018-12-31T02:42:53.509Z,8.20
2018-12-31T02:44:00.141Z,8.60
2018-12-31T02:45:07.460Z,8.60
2018-12-31T02:46:14.184Z,9.00
2018-12-31T02:47:20.961Z,8.60
2018-12-31T02:48:27.732Z,9.40
2018-12-31T02:49:34.600Z,8.30
2018-12-31T02:50:41.240Z,8.50
2018-12-31T02:51:47.900Z,8.40
2018-12-31T02:52:54.905Z,8.50
2018-12-31T02:54:01.581Z,8.80
2018-12-31T02:55:08.409Z,8.40
2018-12-31T02:56:15.080Z,8.20
2018-12-31T02:57:21.808Z,8.20
2018-12-31T02:58:28.517Z,9.00
2018-12-31T02:59:35.287Z,8.40
2018-12-31T03:00:41.922Z,9.00
2018-12-31T03:01:48.910Z,8.80
2018-12-31T03:02:55.572Z,9.20
2018-12-31T03:04:02.832Z,8.40
2018-12-31T03:05:09.511Z,9.10
2018-12-31T03:06:17.197Z,9.10
2018-12-31T03:07:23.045Z,9.00
2018-12-31T03:08:29.812Z,9.40
2018-12-31T03:09:37.076Z,9.30
2018-12-31T03:10:43.686Z,9.40
2018-12-31T03:11:51.023Z,10.20
2018-12-31T03:12:57.700Z,9.60
2018-12-31T03:14:04.448Z,10.60
2018-12-31T03:15:11.105Z,10.50
2018-12-31T03:16:18.265Z,9.70
2018-12-31T03:17:25.552Z,10.70
2018-12-31T03:18:32.171Z,9.80
2018-12-31T03:19:39.396Z,9.10
2018-12-31T03:20:46.068Z,9.60
2018-12-31T03:21:53.035Z,10.20
2018-12-31T03:22:59.688Z,9.90
2018-12-31T03:24:06.981Z,9.70
2018-12-31T03:25:13.728Z,9.30
2018-12-31T03:26:20.597Z,9.40
2018-12-31T03:27:27.375Z,9.40
2018-12-31T03:28:33.955Z,9.00
2018-12-31T03:29:41.114Z,8.50
2018-12-31T03:30:47.859Z,8.40
2018-12-31T03:31:55.909Z,8.70
2018-12-31T03:33:01.519Z,8.80
2018-12-31T03:34:08.376Z,8.20
2018-12-31T03:35:15.176Z,8.80
2018-12-31T03:36:22.000Z,8.90
2018-12-31T03:37:28.667Z,8.80
2018-12-31T03:38:35.961Z,8.80
2018-12-31T03:39:42.801Z,8.40
2018-12-31T03:40:49.568Z,9.10
2018-12-31T03:41:56.224Z,8.70
2018-12-31T03:43:03.501Z,8.80
2018-12-31T03:44:10.086Z,9.20
2018-12-31T03:45:17.360Z,8.70
2018-12-31T03:46:24.128Z,8.10
2018-12-31T03:47:30.864Z,9.00
2018-12-31T03:48:37.769Z,9.90
2018-12-31T03:49:44.401Z,9.70
2018-12-31T03:50:51.690Z,8.80
2018-12-31T03:51:58.269Z,8.40
2018-12-31T03:53:05.475Z,9.50
2018-12-31T03:54:12.113Z,8.60
2018-12-31T03:55:19.260Z,9.10
2018-12-31T03:56:26.530Z,9.40
2018-12-31T03:57:33.194Z,10.60
2018-12-31T03:58:40.369Z,10.30
2018-12-31T03:59:47.553Z,9.70
2018-12-31T04:00:54.243Z,9.00
2018-12-31T04:02:00.927Z,9.20
2018-12-31T04:03:07.837Z,8.60
2018-12-31T04:04:14.418Z,9.00
2018-12-31T04:05:21.786Z,9.30
2018-12-31T04:06:28.445Z,9.40
2018-12-31T04:07:35.724Z,9.10
2018-12-31T04:08:42.364Z,8.40
2018-12-31T04:09:49.178Z,8.40
2018-12-31T04:10:55.809Z,8.80
2018-12-31T04:12:03.086Z,9.30
2018-12-31T04:13:09.768Z,8.90
2018-12-31T04:14:16.518Z,9.30
2018-12-31T04:15:23.411Z,8.80
2018-12-31T04:16:30.028Z,8.90
2018-12-31T04:17:37.329Z,9.10
2018-12-31T04:18:43.964Z,9.10
2018-12-31T04:19:51.289Z,8.70
2018-12-31T04:20:58.016Z,8.80
2018-12-31T04:22:05.301Z,8.70
2018-12-31T04:23:11.953Z,9.10
2018-12-31T04:24:18.703Z,9.40
2018-12-31T04:25:25.458Z,8.40
2018-12-31T04:26:32.161Z,9.00
2018-12-31T04:27:39.348Z,9.10
2018-12-31T04:28:45.980Z,8.90
2018-12-31T04:29:53.206Z,8.90
2018-12-31T04:30:59.813Z,9.60
2018-12-31T04:32:07.112Z,9.20
2018-12-31T04:33:13.776Z,10.40
2018-12-31T04:34:21.010Z,9.10
2018-12-31T04:35:27.735Z,8.80
2018-12-31T04:36:34.466Z,10.40
2018-12-31T04:37:41.132Z,9.80
2018-12-31T04:38:47.891Z,9.80
2018-12-31T04:39:54.668Z,10.90
2018-12-31T04:41:01.328Z,9.80
2018-12-31T04:42:08.211Z,9.80
2018-12-31T04:43:14.968Z,10.60
2018-12-31T04:44:21.703Z,10.80
2018-12-31T04:45:28.504Z,10.10
2018-12-31T04:46:35.257Z,10.30
2018-12-31T04:47:41.909Z,9.80
2018-12-31T04:48:49.291Z,11.10
2018-12-31T04:49:55.954Z,10.40
2018-12-31T04:51:03.049Z,10.30
2018-12-31T04:52:10.240Z,11.00
2018-12-31T04:53:16.965Z,10.90
2018-12-31T04:54:23.728Z,9.70
2018-12-31T04:55:30.393Z,10.10
2018-12-31T04:56:37.693Z,10.90
2018-12-31T04:57:44.333Z,10.60
2018-12-31T04:58:51.201Z,11.00
2018-12-31T04:59:57.853Z,10.30
2018-12-31T05:01:05.181Z,10.30
2018-12-31T05:02:11.971Z,9.90
2018-12-31T05:03:18.514Z,9.80
2018-12-31T05:04:25.504Z,10.40
2018-12-31T05:05:32.717Z,9.40
2018-12-31T05:06:40.126Z,10.10
2018-12-31T05:07:46.865Z,10.10
2018-12-31T05:08:53.730Z,10.30
2018-12-31T05:10:00.387Z,9.50
2018-12-31T05:11:07.497Z,9.00
2018-12-31T05:12:14.242Z,9.20
2018-12-31T05:13:21.102Z,10.40
2018-12-31T05:14:27.762Z,10.00
2018-12-31T05:15:35.036Z,9.50
2018-12-31T05:16:41.752Z,9.70
2018-12-31T05:17:48.620Z,10.50
2018-12-31T05:18:55.420Z,10.30
2018-12-31T05:20:02.154Z,10.70
2018-12-31T05:21:09.080Z,10.90
2018-12-31T05:22:15.716Z,10.00
2018-12-31T05:23:23.004Z,10.30
2018-12-31T05:24:29.684Z,9.90
2018-12-31T05:25:36.440Z,9.90
2018-12-31T05:26:43.128Z,10.30
2018-12-31T05:27:49.969Z,10.50
2018-12-31T05:28:56.530Z,10.30
2018-12-31T05:30:03.792Z,10.20
2018-12-31T05:31:10.648Z,9.70
2018-12-31T05:32:17.243Z,9.30
2018-12-31T05:33:24.509Z,10.20
2018-12-31T05:34:31.273Z,10.00
2018-12-31T05:35:38.048Z,10.60
2018-12-31T05:36:44.814Z,8.60
2018-12-31T05:37:51.671Z,9.00
2018-12-31T05:38:58.228Z,9.20
2018-12-31T05:40:05.440Z,9.40
2018-12-31T05:41:12.164Z,9.80
2018-12-31T05:42:18.871Z,10.10
2018-12-31T05:43:26.129Z,9.50
2018-12-31T05:44:32.700Z,9.00
2018-12-31T05:45:39.953Z,9.80
2018-12-31T05:46:46.713Z,9.10
2018-12-31T05:47:53.903Z,8.70
2018-12-31T05:49:00.659Z,8.70
2018-12-31T05:50:07.423Z,8.80
2018-12-31T05:51:14.014Z,8.30
2018-12-31T05:52:21.272Z,8.10
2018-12-31T05:53:27.920Z,8.70
2018-12-31T05:54:34.672Z,8.90
2018-12-31T05:55:41.845Z,8.70
2018-12-31T05:56:48.460Z,8.90
2018-12-31T05:57:55.609Z,8.20
2018-12-31T05:59:02.860Z,8.60
2018-12-31T06:00:09.624Z,8.40
2018-12-31T06:01:16.316Z,9.50
2018-12-31T06:02:23.090Z,8.30
2018-12-31T06:03:29.703Z,9.20
2018-12-31T06:04:36.989Z,8.80
2018-12-31T06:05:43.657Z,8.60
2018-12-31T06:06:50.424Z,9.30
2018-12-31T06:07:57.160Z,9.70
2018-12-31T06:09:04.361Z,8.80
2018-12-31T06:10:10.920Z,9.30
2018-12-31T06:11:17.996Z,9.70
2018-12-31T06:12:25.269Z,9.30
2018-12-31T06:13:32.058Z,9.10
2018-12-31T06:14:38.916Z,9.60
2018-12-31T06:15:45.424Z,9.40
2018-12-31T06:16:52.636Z,9.50
2018-12-31T06:17:59.428Z,10.50
2018-12-31T06:19:06.106Z,10.00
2018-12-31T06:20:13.344Z,10.40
2018-12-31T06:21:20.037Z,10.30
2018-12-31T06:22:26.790Z,9.60
2018-12-31T06:23:33.458Z,9.60
2018-12-31T06:24:40.717Z,9.00
2018-12-31T06:25:47.693Z,9.30
2018-12-31T06:26:54.436Z,9.60
2018-12-31T06:28:01.122Z,8.50
2018-12-31T06:29:08.086Z,9.40
2018-12-31T06:30:14.720Z,9.30
2018-12-31T06:31:22.029Z,9.70
2018-12-31T06:32:28.696Z,9.20
2018-12-31T06:33:35.665Z,8.90
2018-12-31T06:34:42.528Z,9.10
2018-12-31T06:35:49.165Z,8.80
2018-12-31T06:36:56.365Z,9.00
2018-12-31T06:38:03.123Z,7.60
2018-12-31T06:39:09.836Z,8.40
2018-12-31T06:40:16.492Z,9.00
2018-12-31T06:41:23.729Z,8.70
2018-12-31T06:42:30.496Z,9.10
2018-12-31T06:43:37.325Z,10.00
2018-12-31T06:44:44.021Z,10.20
2018-12-31T06:45:50.792Z,10.00
2018-12-31T06:46:57.446Z,8.70
2018-12-31T06:48:04.149Z,9.50
2018-12-31T06:49:11.300Z,9.50
2018-12-31T06:50:18.088Z,10.00
2018-12-31T06:51:24.816Z,9.50
2018-12-31T06:52:31.478Z,8.80
2018-12-31T06:53:38.207Z,9.40
2018-12-31T06:54:44.933Z,13.50
2018-12-31T06:55:51.673Z,13.20
2018-12-31T06:56:58.363Z,13.70
2018-12-31T06:58:05.607Z,14.10
2018-12-31T06:59:12.326Z,11.50
2018-12-31T07:00:19.035Z,9.50
2018-12-31T07:01:25.738Z,10.20
2018-12-31T07:02:32.468Z,10.30
2018-12-31T07:03:39.221Z,9.70
2018-12-31T07:04:45.936Z,9.90
2018-12-31T07:05:53.157Z,9.20
2018-12-31T07:06:59.756Z,9.10
2018-12-31T07:08:07.009Z,9.30
2018-12-31T07:09:13.681Z,9.40
2018-12-31T07:10:20.429Z,9.60
2018-12-31T07:11:27.115Z,8.90
2018-12-31T07:12:33.683Z,8.80
2018-12-31T07:13:40.840Z,9.00
2018-12-31T07:14:48.027Z,9.00
2018-12-31T07:15:54.976Z,8.80
2018-12-31T07:17:01.741Z,9.40
2018-12-31T07:18:08.507Z,8.80
2018-12-31T07:19:15.188Z,8.40
2018-12-31T07:20:22.062Z,7.60
2018-12-31T07:21:28.697Z,8.40
2018-12-31T07:22:35.465Z,8.20
2018-12-31T07:23:42.106Z,8.40
2018-12-31T07:24:49.316Z,8.30
2018-12-31T07:25:55.892Z,8.20
2018-12-31T07:27:03.152Z,9.30
2018-12-31T07:28:09.806Z,8.30
2018-12-31T07:29:16.972Z,10.20
2018-12-31T07:30:24.156Z,9.30
2018-12-31T07:31:30.845Z,9.30
2018-12-31T07:32:38.201Z,9.30
2018-12-31T07:33:44.879Z,8.60
2018-12-31T07:34:51.747Z,9.10
2018-12-31T07:35:58.477Z,9.60
2018-12-31T07:37:05.217Z,8.40
2018-12-31T07:38:11.912Z,9.20
2018-12-31T07:39:18.688Z,9.00
2018-12-31T07:40:25.293Z,9.20
2018-12-31T07:41:32.504Z,9.10
2018-12-31T07:42:39.384Z,9.80
2018-12-31T07:43:46.042Z,9.30
2018-12-31T07:44:52.834Z,9.80
2018-12-31T07:45:59.592Z,10.40
2018-12-31T07:47:06.456Z,9.80
2018-12-31T07:48:13.204Z,9.30
2018-12-31T07:49:20.441Z,9.90
2018-12-31T07:50:28.187Z,9.80
2018-12-31T07:51:33.912Z,9.30
2018-12-31T07:52:41.088Z,8.90
2018-12-31T07:53:47.763Z,8.60
2018-12-31T07:54:55.460Z,12.90
2018-12-31T07:56:01.661Z,15.30
2018-12-31T07:57:08.437Z,16.50
2018-12-31T07:58:15.070Z,17.40
2018-12-31T07:59:22.305Z,15.60
2018-12-31T08:00:29.111Z,9.60
2018-12-31T08:01:35.885Z,9.70
2018-12-31T08:02:42.613Z,9.10
2018-12-31T08:03:49.468Z,9.50
2018-12-31T08:04:56.074Z,9.70
2018-12-31T08:06:03.425Z,9.70
2018-12-31T08:07:10.085Z,11.00
2018-12-31T08:08:17.220Z,10.70
2018-12-31T08:09:24.533Z,9.20
2018-12-31T08:10:31.301Z,9.60
2018-12-31T08:11:38.132Z,9.60
2018-12-31T08:12:44.826Z,10.40
2018-12-31T08:13:51.573Z,12.20
2018-12-31T08:14:58.360Z,11.40
2018-12-31T08:16:05.233Z,10.30
2018-12-31T08:17:11.973Z,10.40
2018-12-31T08:18:18.742Z,10.80
2018-12-31T08:19:25.622Z,10.60
2018-12-31T08:20:32.276Z,10.30
2018-12-31T08:21:39.601Z,10.50
2018-12-31T08:22:46.613Z,10.40
2018-12-31T08:23:53.401Z,10.30
2018-12-31T08:25:00.084Z,10.40
2018-12-31T08:26:06.922Z,10.20
2018-12-31T08:27:13.573Z,10.60
2018-12-31T08:28:20.860Z,10.30
2018-12-31T08:29:27.512Z,10.00
2018-12-31T08:30:34.272Z,10.20
2018-12-31T08:31:41.070Z,10.50
2018-12-31T08:32:47.727Z,11.00
2018-12-31T08:33:54.474Z,10.50
2018-12-31T08:35:01.126Z,10.90
2018-12-31T08:36:08.100Z,11.10
2018-12-31T08:37:14.980Z,10.80
2018-12-31T08:38:21.728Z,11.10
2018-12-31T08:39:28.497Z,11.40
2018-12-31T08:40:35.305Z,11.80
2018-12-31T08:41:42.252Z,11.70
2018-12-31T08:42:48.993Z,13.10
2018-12-31T08:43:55.657Z,13.30
2018-12-31T08:45:02.425Z,15.40
2018-12-31T08:46:09.320Z,14.90
2018-12-31T08:47:16.448Z,16.60
2018-12-31T08:48:23.656Z,17.40
2018-12-31T08:49:30.304Z,14.70
2018-12-31T08:50:37.609Z,14.50
2018-12-31T08:51:44.364Z,14.10
2018-12-31T08:52:51.213Z,12.60
2018-12-31T08:53:57.894Z,11.90
2018-12-31T08:55:05.165Z,12.00
2018-12-31T08:56:11.821Z,12.80
2018-12-31T08:57:18.605Z,12.10
2018-12-31T08:58:25.454Z,12.30
2018-12-31T08:59:32.069Z,12.60
2018-12-31T09:00:39.385Z,11.30
2018-12-31T09:01:46.177Z,11.50
2018-12-31T09:02:53.040Z,10.70
2018-12-31T09:03:59.639Z,10.90
2018-12-31T09:05:06.874Z,10.80
2018-12-31T09:06:13.923Z,11.00
2018-12-31T09:07:20.732Z,10.20
2018-12-31T09:08:27.353Z,11.40
2018-12-31T09:09:34.525Z,11.60
2018-12-31T09:10:41.299Z,10.10
2018-12-31T09:11:48.061Z,11.50
2018-12-31T09:12:55.091Z,11.60
2018-12-31T09:14:01.803Z,11.00
2018-12-31T09:15:08.552Z,11.30
2018-12-31T09:16:15.220Z,11.30
2018-12-31T09:17:22.360Z,10.60
2018-12-31T09:18:29.253Z,13.60
2018-12-31T09:19:36.499Z,14.50
2018-12-31T09:20:43.122Z,12.30
2018-12-31T09:21:50.389Z,12.80
2018-12-31T09:22:57.013Z,12.70
2018-12-31T09:24:04.237Z,13.40
2018-12-31T09:25:10.944Z,12.70
2018-12-31T09:26:17.744Z,13.80
2018-12-31T09:27:24.510Z,14.90
2018-12-31T09:28:31.201Z,15.10
2018-12-31T09:29:37.936Z,14.60
2018-12-31T09:30:44.627Z,14.10
2018-12-31T09:31:51.381Z,13.90
2018-12-31T09:32:58.159Z,14.40
2018-12-31T09:34:04.827Z,13.60
2018-12-31T09:35:11.502Z,13.50
2018-12-31T09:36:18.237Z,14.40
2018-12-31T09:37:24.950Z,13.50
2018-12-31T09:38:31.732Z,12.20
2018-12-31T09:39:38.937Z,13.10
2018-12-31T09:40:45.693Z,13.70
2018-12-31T09:41:53.421Z,13.50
2018-12-31T09:42:59.098Z,13.50
2018-12-31T09:44:06.328Z,13.10
2018-12-31T09:45:13.066Z,14.20
2018-12-31T09:46:19.827Z,15.20
2018-12-31T09:47:26.604Z,16.60
2018-12-31T09:48:33.233Z,17.00
2018-12-31T09:49:40.240Z,16.80
2018-12-31T09:50:47.089Z,20.30
2018-12-31T09:51:53.886Z,19.20
2018-12-31T09:53:00.443Z,20.00
2018-12-31T09:54:07.712Z,23.90
2018-12-31T09:55:14.492Z,24.40
2018-12-31T09:56:21.238Z,19.90
2018-12-31T09:57:28.019Z,19.70
2018-12-31T09:58:36.351Z,16.10
2018-12-31T09:59:41.532Z,16.10
2018-12-31T10:00:48.432Z,15.40
2018-12-31T10:01:55.385Z,20.80
2018-12-31T10:03:02.344Z,25.70
2018-12-31T10:04:09.001Z,27.90
2018-12-31T10:05:16.265Z,52.60
2018-12-31T10:06:23.207Z,47.90
2018-12-31T10:07:30.025Z,37.50
2018-12-31T10:08:37.672Z,31.60
2018-12-31T10:09:43.929Z,25.60
2018-12-31T10:10:50.719Z,27.10
2018-12-31T10:11:57.577Z,25.60
2018-12-31T10:13:04.445Z,23.90
2018-12-31T10:14:11.056Z,20.80
2018-12-31T10:15:18.270Z,20.90
2018-12-31T10:16:25.041Z,20.90
2018-12-31T10:17:31.784Z,18.50
2018-12-31T10:18:39.012Z,21.00
2018-12-31T10:19:45.647Z,20.80
2018-12-31T10:20:52.916Z,18.90
2018-12-31T10:21:59.621Z,16.80
2018-12-31T10:23:06.385Z,17.10
2018-12-31T10:24:13.121Z,18.00
2018-12-31T10:25:19.810Z,18.70
2018-12-31T10:26:26.428Z,20.40
2018-12-31T10:27:33.708Z,24.10
2018-12-31T10:28:40.576Z,24.90
2018-12-31T10:29:47.370Z,25.30
2018-12-31T10:30:54.121Z,24.50
2018-12-31T10:32:00.848Z,26.50
2018-12-31T10:33:08.157Z,26.90
2018-12-31T10:34:14.873Z,23.50
2018-12-31T10:35:22.013Z,21.40
2018-12-31T10:36:28.761Z,22.00
2018-12-31T10:37:35.617Z,23.10
2018-12-31T10:38:42.431Z,22.30
2018-12-31T10:39:48.985Z,21.80
2018-12-31T10:40:56.130Z,21.80
2018-12-31T10:42:03.330Z,21.30
2018-12-31T10:43:09.969Z,21.10
2018-12-31T10:44:17.207Z,20.10
2018-12-31T10:45:23.914Z,19.20
2018-12-31T10:46:30.561Z,20.20
2018-12-31T10:47:37.745Z,20.00
2018-12-31T10:48:44.393Z,20.30
2018-12-31T10:49:51.759Z,22.00
2018-12-31T10:50:58.554Z,19.90
2018-12-31T10:52:05.417Z,21.10
2018-12-31T10:53:12.389Z,20.10
2018-12-31T10:54:19.254Z,18.60
2018-12-31T10:55:25.817Z,17.20
2018-12-31T10:56:32.485Z,17.20
2018-12-31T10:57:39.258Z,15.00
2018-12-31T10:58:46.238Z,15.20
2018-12-31T10:59:53.104Z,16.80
2018-12-31T11:01:00.877Z,16.40
2018-12-31T11:02:06.716Z,16.40
2018-12-31T11:03:13.479Z,16.10
2018-12-31T11:04:20.376Z,16.80
2018-12-31T11:05:27.188Z,16.40
2018-12-31T11:06:33.869Z,16.40
2018-12-31T11:07:40.724Z,14.30
2018-12-31T11:08:47.505Z,12.70
2018-12-31T11:09:54.295Z,15.00
2018-12-31T11:11:01.058Z,14.20
2018-12-31T11:12:07.893Z,15.70
2018-12-31T11:13:14.577Z,13.80
2018-12-31T11:14:21.978Z,13.60
2018-12-31T11:15:29.985Z,13.60
2018-12-31T11:16:35.906Z,14.00
2018-12-31T11:17:42.745Z,12.40
2018-12-31T11:18:49.555Z,12.20
2018-12-31T11:19:56.193Z,12.30
2018-12-31T11:21:03.044Z,10.90
2018-12-31T11:22:09.741Z,11.40
2018-12-31T11:23:16.427Z,12.10
2018-12-31T11:24:23.657Z,11.20
2018-12-31T11:25:30.271Z,9.50
2018-12-31T11:26:37.500Z,9.70
2018-12-31T11:27:44.166Z,10.40
2018-12-31T11:28:51.541Z,10.80
2018-12-31T11:29:58.304Z,11.40
2018-12-31T11:31:05.420Z,12.50
2018-12-31T11:32:12.128Z,12.00
2018-12-31T11:33:18.910Z,10.50
2018-12-31T11:34:25.573Z,11.90
2018-12-31T11:35:32.246Z,13.90
2018-12-31T11:36:39.674Z,12.70
2018-12-31T11:37:46.290Z,13.00
2018-12-31T11:38:53.468Z,12.60
2018-12-31T11:40:00.317Z,11.60
2018-12-31T11:41:07.235Z,13.60
2018-12-31T11:42:14.028Z,15.30
2018-12-31T11:43:21.119Z,15.90
2018-12-31T11:44:27.842Z,18.20
2018-12-31T11:45:34.668Z,14.10
2018-12-31T11:46:41.404Z,10.20
2018-12-31T11:47:48.069Z,10.80
2018-12-31T11:48:55.436Z,9.70
2018-12-31T11:50:01.598Z,10.90
2018-12-31T11:51:08.732Z,10.90
2018-12-31T11:52:15.648Z,9.60
2018-12-31T11:53:22.436Z,9.30
2018-12-31T11:54:29.166Z,9.50
2018-12-31T11:55:35.988Z,9.60
2018-12-31T11:56:42.721Z,9.70
2018-12-31T11:57:49.364Z,9.50
2018-12-31T11:58:56.648Z,11.00
2018-12-31T12:00:03.389Z,12.20
2018-12-31T12:01:10.296Z,11.70
2018-12-31T12:02:23.531Z,11.90
2018-12-31T12:03:23.732Z,10.40
2018-12-31T12:04:30.481Z,11.60
2018-12-31T12:05:37.665Z,11.40
2018-12-31T12:06:44.324Z,11.20
2018-12-31T12:07:51.281Z,11.80
2018-12-31T12:08:58.041Z,11.30
2018-12-31T12:10:04.865Z,10.80
2018-12-31T12:11:11.826Z,10.50
2018-12-31T12:12:19.108Z,10.30
2018-12-31T12:13:25.394Z,11.00
2018-12-31T12:14:32.190Z,9.60
2018-12-31T12:15:38.957Z,10.30
2018-12-31T12:16:45.821Z,11.60
2018-12-31T12:17:52.632Z,10.20
2018-12-31T12:18:59.448Z,10.20
2018-12-31T12:20:07.740Z,10.00
2018-12-31T12:21:13.810Z,9.80
2018-12-31T12:22:20.013Z,10.90
2018-12-31T12:23:26.805Z,9.90
2018-12-31T12:24:33.468Z,10.00
2018-12-31T12:25:40.844Z,9.80
2018-12-31T12:26:47.632Z,9.70
2018-12-31T12:27:54.376Z,10.30
2018-12-31T12:29:01.089Z,10.00
2018-12-31T12:30:07.912Z,10.60
2018-12-31T12:31:14.564Z,10.90
2018-12-31T12:32:21.860Z,10.60
2018-12-31T12:33:28.608Z,11.70
2018-12-31T12:34:35.503Z,10.00
2018-12-31T12:35:42.869Z,11.50
2018-12-31T12:36:49.131Z,11.00
2018-12-31T12:37:55.867Z,10.80
2018-12-31T12:39:02.647Z,9.70
2018-12-31T12:40:09.409Z,10.20
2018-12-31T12:41:16.647Z,11.20
2018-12-31T12:42:23.776Z,9.20
2018-12-31T12:43:30.555Z,10.60
2018-12-31T12:44:37.600Z,10.20
2018-12-31T12:45:44.252Z,10.70
2018-12-31T12:46:51.359Z,10.70
2018-12-31T12:47:58.293Z,9.60
2018-12-31T12:49:05.207Z,10.00
2018-12-31T12:50:12.375Z,10.90
2018-12-31T12:51:18.661Z,11.60
2018-12-31T12:52:26.949Z,11.30
2018-12-31T12:53:32.714Z,10.30
2018-12-31T12:54:39.418Z,10.50
2018-12-31T12:55:46.059Z,10.00
2018-12-31T12:56:52.650Z,11.40
2018-12-31T12:57:59.732Z,10.90
2018-12-31T12:59:06.360Z,10.60
2018-12-31T13:00:13.449Z,10.70
2018-12-31T13:01:19.985Z,10.30
2018-12-31T13:02:27.020Z,11.30
2018-12-31T13:03:34.346Z,11.70
2018-12-31T13:04:41.155Z,11.60
2018-12-31T13:05:48.270Z,10.70
2018-12-31T13:06:55.316Z,11.10
2018-12-31T13:08:02.087Z,11.40
2018-12-31T13:09:09.203Z,11.20
2018-12-31T13:10:16.255Z,10.90
2018-12-31T13:11:23.330Z,11.40
2018-12-31T13:12:29.862Z,10.40
2018-12-31T13:13:36.889Z,11.20
2018-12-31T13:14:43.842Z,10.80
2018-12-31T13:15:50.741Z,11.70
2018-12-31T13:16:57.678Z,11.20
2018-12-31T13:18:04.986Z,10.70
2018-12-31T13:19:11.325Z,11.20
2018-12-31T13:20:18.765Z,11.00
2018-12-31T13:21:25.459Z,12.80
2018-12-31T13:22:32.403Z,12.70
2018-12-31T13:23:39.567Z,12.50
2018-12-31T13:24:46.211Z,12.50
2018-12-31T13:25:53.390Z,12.10
2018-12-31T13:26:59.812Z,12.60
2018-12-31T13:28:06.805Z,13.60
2018-12-31T13:29:13.650Z,13.50
2018-12-31T13:30:20.903Z,12.60
2018-12-31T13:31:27.677Z,13.20
2018-12-31T13:32:34.626Z,12.50
2018-12-31T13:33:41.427Z,13.50
2018-12-31T13:34:48.094Z,12.50
2018-12-31T13:35:54.824Z,12.90
2018-12-31T13:37:01.490Z,10.70
2018-12-31T13:38:08.386Z,12.50
2018-12-31T13:39:15.051Z,11.60
2018-12-31T13:40:22.403Z,11.80
2018-12-31T13:41:28.965Z,13.00
2018-12-31T13:42:36.343Z,13.40
2018-12-31T13:43:42.991Z,12.00
2018-12-31T13:44:49.772Z,12.70
2018-12-31T13:45:56.424Z,13.30
2018-12-31T13:47:07.904Z,12.30
2018-12-31T13:48:10.076Z,11.90
2018-12-31T13:49:17.226Z,11.20
2018-12-31T13:50:23.953Z,12.90
2018-12-31T13:51:30.670Z,12.40
2018-12-31T13:52:37.425Z,12.90
2018-12-31T13:53:44.318Z,15.30
2018-12-31T13:54:51.364Z,15.50
2018-12-31T13:55:57.989Z,18.10
2018-12-31T13:57:05.309Z,21.80
2018-12-31T13:58:12.064Z,24.10
2018-12-31T13:59:18.749Z,23.70
2018-12-31T14:00:25.430Z,22.60
2018-12-31T14:01:33.762Z,19.20
2018-12-31T14:02:39.949Z,18.80
2018-12-31T14:03:46.605Z,19.90
2018-12-31T14:04:53.348Z,18.90
2018-12-31T14:06:00.961Z,17.30
2018-12-31T14:07:07.446Z,18.20
2018-12-31T14:08:14.045Z,18.10
2018-12-31T14:09:21.370Z,17.70
2018-12-31T14:10:28.040Z,16.60
2018-12-31T14:11:35.298Z,15.00
2018-12-31T14:12:42.054Z,15.80
2018-12-31T14:13:48.878Z,14.20
2018-12-31T14:14:55.593Z,15.90
2018-12-31T14:16:02.557Z,13.80
2018-12-31T14:17:09.248Z,13.00
2018-12-31T14:18:16.004Z,12.50
2018-12-31T14:19:22.778Z,12.20
2018-12-31T14:20:29.645Z,11.80
2018-12-31T14:21:36.842Z,11.20
2018-12-31T14:22:43.932Z,11.10
2018-12-31T14:23:50.976Z,11.60
2018-12-31T14:24:57.740Z,13.30
2018-12-31T14:26:04.468Z,12.20
2018-12-31T14:27:11.332Z,10.10
2018-12-31T14:28:18.029Z,10.20
2018-12-31T14:29:24.780Z,11.10
2018-12-31T14:30:31.452Z,10.70
2018-12-31T14:31:38.716Z,10.30
2018-12-31T14:32:45.362Z,10.30
2018-12-31T14:33:52.229Z,9.50
2018-12-31T14:34:58.909Z,10.40